Time;durP1;ratioP1;P1;durP2;ratioP2;P2;SDS_P1;SDS_P2;PMS_P1;PMS_P2;Temp;Humidity;BMP_temperature;BMP_pressure;BME280_temperature;BME280_humidity;BME280_pressure;Samples;Min_cycle;Max_cycle;Signal;HPM_P1;HPM_P2
2023/09/08 07:23:07;;;;;;;12.05;10.27;;;;;;;-145.79;64.25;76817.72;5334217;27;20386;-69
2023/09/08 07:25:38;;;;;;;13.32;10.43;;;;;;;-145.79;64.34;76815.63;5328989;28;20035;-70
2023/09/08 07:28:10;;;;;;;19.85;12.65;;;;;;;-145.79;64.06;76800.78;5333090;28;20523;-70
2023/09/08 07:30:41;;;;;;;11.77;9.68;;;;;;;-145.79;64.19;76790.19;5334468;28;20418;-68
2023/09/08 07:33:13;;;;;;;13.57;9.85;;;;;;;-145.79;64.08;76788.06;5330627;28;20095;-68
2023/09/08 07:35:44;;;;;;;11.68;10.07;;;;;;;-145.79;63.66;76775.34;5320907;28;20034;-68
2023/09/08 07:38:15;;;;;;;16.50;10.25;;;;;;;-145.79;63.57;76775.34;5331728;28;20023;-72
2023/09/08 07:40:47;;;;;;;11.38;9.45;;;;;;;-145.79;63.50;76762.63;5329596;28;20482;-71
2023/09/08 07:43:18;;;;;;;11.32;10.07;;;;;;;-145.79;62.84;76758.38;5331929;28;20024;-71
2023/09/08 07:45:49;;;;;;;77.88;16.88;;;;;;;-145.79;62.76;76745.69;5323734;28;20042;-71
2023/09/08 07:48:21;;;;;;;9.82;8.98;;;;;;;-145.79;62.76;76741.44;5327927;28;20032;-70
2023/09/08 07:50:52;;;;;;;12.43;9.68;;;;;;;-145.79;62.62;76730.84;5334538;28;20063;-68
2023/09/08 07:53:23;;;;;;;10.00;8.85;;;;;;;-145.79;62.23;76724.47;5319701;28;20103;-70
2023/09/08 07:55:54;;;;;;;9.38;8.40;;;;;;;-145.79;62.43;76716.00;5334111;28;20032;-70
2023/09/08 07:58:26;;;;;;;11.35;8.20;;;;;;;-145.79;62.29;76703.28;5330271;28;20474;-70
2023/09/08 08:00:57;;;;;;;9.35;8.25;;;;;;;-145.79;62.40;76688.44;5335581;28;20077;-70
2023/09/08 08:03:28;;;;;;;9.52;8.57;;;;;;;-145.79;61.75;76677.84;5327737;28;20027;-69
2023/09/08 08:06:00;;;;;;;9.85;8.30;;;;;;;-145.79;62.02;76673.63;5333837;28;20505;-69
2023/09/08 08:08:32;;;;;;;8.85;8.10;;;;;;;-145.79;61.85;76667.25;5327004;28;20123;-69
2023/09/08 08:11:09;;;;;;;11.15;9.65;;;;;;;-145.79;62.05;76660.91;5333385;28;20024;-69
2023/09/08 08:13:40;;;;;;;8.52;7.72;;;;;;;-145.79;61.85;76650.31;5330901;28;20054;-69
2023/09/08 08:16:11;;;;;;;8.77;7.88;;;;;;;-145.79;61.59;76641.84;5325031;28;20046;-70
2023/09/08 08:18:43;;;;;;;9.13;8.23;;;;;;;-145.79;61.29;76639.72;5332464;28;20027;-71
2023/09/08 08:21:14;;;;;;;8.73;7.82;;;;;;;-145.79;61.28;76631.22;5315790;28;20426;-68
2023/09/08 08:23:45;;;;;;;8.60;7.80;;;;;;;-145.79;60.84;76618.53;5325256;28;20086;-67
2023/09/08 08:26:18;;;;;;;10.40;7.03;;;;;;;-145.79;61.13;76618.53;5313533;28;20541;-69
2023/09/08 08:28:49;;;;;;;10.18;9.18;;;;;;;-145.79;61.01;76614.28;5325359;28;20044;-69
2023/09/08 08:31:20;;;;;;;10.68;8.52;;;;;;;-145.79;60.20;76610.03;5333053;28;20119;-70
2023/09/08 08:33:52;;;;;;;7.97;7.18;;;;;;;-145.79;60.37;76605.81;5322502;28;20500;-70
2023/09/08 08:36:23;;;;;;;7.97;6.70;;;;;;;-145.79;60.72;76601.56;5308138;28;20028;-70
2023/09/08 08:38:55;;;;;;;7.30;6.55;;;;;;;-145.79;60.84;76588.84;5311076;28;20107;-71
2023/09/08 08:41:26;;;;;;;7.97;7.22;;;;;;;-145.79;59.74;76580.38;5317088;28;20035;-70
2023/09/08 08:43:58;;;;;;;7.65;6.90;;;;;;;-145.79;59.41;76567.66;5302834;28;20115;-70
2023/09/08 08:46:30;;;;;;;7.57;6.65;;;;;;;-145.79;59.29;76574.00;5317351;28;20546;-69
2023/09/08 08:49:04;;;;;;;8.00;7.13;;;;;;;-145.79;59.19;76565.53;5318496;28;20110;-70
2023/09/08 08:51:37;;;;;;;9.33;7.07;;;;;;;-145.79;58.82;76550.69;5314489;28;20031;-69
2023/09/08 08:54:08;;;;;;;9.40;7.13;;;;;;;-145.79;58.26;76546.47;5314414;28;20032;-70
2023/09/08 08:56:40;;;;;;;7.88;7.00;;;;;;;-145.79;58.33;76533.75;5313049;28;20117;-72
2023/09/08 08:59:12;;;;;;;10.57;7.72;;;;;;;-145.79;58.08;76518.91;5312215;28;20016;-70
2023/09/08 09:01:44;;;;;;;8.93;7.50;;;;;;;-145.79;58.17;76506.19;5316804;28;20088;-70
2023/09/08 09:04:16;;;;;;;7.35;6.72;;;;;;;-145.79;57.56;76510.44;5317406;28;20035;-69
2023/09/08 09:06:47;;;;;;;7.53;6.78;;;;;;;-145.79;57.40;76499.84;5315201;28;20055;-69
2023/09/08 09:09:20;;;;;;;7.38;6.68;;;;;;;-145.79;57.31;76482.88;5308303;28;20545;-69
2023/09/08 09:11:51;;;;;;;8.13;7.32;;;;;;;-145.79;56.99;76459.56;5312134;28;20028;-70
2023/09/08 09:14:23;;;;;;;7.72;6.68;;;;;;;-145.79;56.76;76453.22;5318157;28;20032;-69
2023/09/08 09:16:56;;;;;;;8.30;7.60;;;;;;;-145.79;56.14;76442.63;5310841;28;20439;-70
2023/09/08 09:19:28;;;;;;;8.68;7.05;;;;;;;-145.79;56.04;76423.56;5317216;28;20023;-70
2023/09/08 09:21:59;;;;;;;7.18;6.38;;;;;;;-145.79;56.05;76408.72;5303249;28;20514;-70
2023/09/08 09:24:36;;;;;;;8.57;6.90;;;;;;;-145.79;56.07;76398.13;5298117;28;20488;-70
2023/09/08 09:27:08;;;;;;;8.23;7.38;;;;;;;-145.79;55.69;76400.25;5318413;28;20031;-70
2023/09/08 09:29:50;;;;;;;7.93;7.10;;;;;;;-145.79;55.74;76381.16;5309128;28;20391;-71
2023/09/08 09:32:24;;;;;;;7.85;6.97;;;;;;;-145.79;55.70;76393.88;5305852;28;20470;-71
2023/09/08 09:34:57;;;;;;;8.52;7.78;;;;;;;-145.79;56.20;76379.06;5301860;28;20032;-70
2023/09/08 09:37:29;;;;;;;8.35;7.65;;;;;;;-145.79;56.27;76370.56;5305793;28;20474;-70
2023/09/08 09:40:05;;;;;;;10.85;7.57;;;;;;;-145.79;55.67;76368.47;5312376;28;20039;-70
2023/09/08 09:42:40;;;;;;;;;;;;;;;-145.79;55.84;76362.09;5304931;28;20081;-70
2023/09/08 09:45:11;;;;;;;7.88;6.47;;;;;;;-145.79;55.33;76364.22;5306953;28;20007;-72
2023/09/08 09:47:43;;;;;;;7.13;6.40;;;;;;;-145.79;55.28;76359.97;5316769;28;20110;-70
2023/09/08 09:50:14;;;;;;;7.78;6.68;;;;;;;-145.79;55.04;76355.75;5316376;28;20031;-71
2023/09/08 09:52:48;;;;;;;7.35;6.60;;;;;;;-145.79;54.65;76343.03;5305176;28;20024;-70
2023/09/08 09:55:20;;;;;;;10.68;7.30;;;;;;;-145.79;54.67;76326.06;5305614;28;20028;-70
2023/09/08 09:57:56;;;;;;;9.15;7.05;;;;;;;-145.79;54.46;76311.25;5306986;28;20360;-70
2023/09/08 10:00:28;;;;;;;7.75;7.05;;;;;;;-145.79;54.59;76292.16;5315961;28;20493;-70
2023/09/08 10:03:00;;;;;;;8.02;7.25;;;;;;;-145.79;54.58;76279.47;5314130;28;20057;-69
2023/09/08 10:05:31;;;;;;;9.85;7.57;;;;;;;-145.79;53.88;76260.38;5309539;28;20127;-69
2023/09/08 10:08:03;;;;;;;7.80;7.10;;;;;;;-145.79;53.99;76266.75;5313932;28;20077;-71
2023/09/08 10:10:36;;;;;;;8.05;7.25;;;;;;;-145.79;54.42;76243.44;5314397;28;20596;-73
2023/09/08 10:13:11;;;;;;;8.20;7.00;;;;;;;-145.79;53.77;76258.25;5313219;28;20035;-71
2023/09/08 10:15:44;;;;;;;8.68;7.28;;;;;;;-145.79;53.72;76247.66;5313050;28;20020;-71
2023/09/08 10:18:19;;;;;;;8.77;6.47;;;;;;;-145.79;53.59;76239.19;5317251;28;20062;-70
2023/09/08 10:20:57;;;;;;;7.45;6.75;;;;;;;-145.79;52.75;76228.59;5314516;28;20110;-70
2023/09/08 10:23:36;;;;;;;7.00;6.32;;;;;;;-145.79;52.44;76207.41;5312865;28;20019;-70
2023/09/08 10:26:10;;;;;;;7.78;6.13;;;;;;;-145.79;53.12;76198.94;5310707;28;20354;-72
2023/09/08 10:28:43;;;;;;;7.95;6.70;;;;;;;-145.79;52.87;76207.41;5304887;28;20031;-70
2023/09/08 10:31:15;;;;;;;23.08;20.67;;;;;;;-145.79;52.94;76205.28;5314421;28;20061;-70
2023/09/08 10:33:47;;;;;;;9.02;6.93;;;;;;;-145.79;52.66;76196.81;5312644;28;20099;-69
2023/09/08 10:36:18;;;;;;;10.32;7.90;;;;;;;-145.79;52.40;76196.81;5313398;28;20049;-70
2023/09/08 10:38:51;;;;;;;7.07;6.53;;;;;;;-145.79;52.25;76192.56;5316984;28;20035;-70
2023/09/08 10:41:23;;;;;;;8.13;7.30;;;;;;;-145.79;52.51;76179.88;5312706;28;20483;-70
2023/09/08 10:44:00;;;;;;;8.48;6.90;;;;;;;-145.79;51.96;76186.22;5305402;28;20036;-70
2023/09/08 10:46:32;;;;;;;8.02;6.55;;;;;;;-145.79;51.57;76181.97;5303775;28;20069;-70
2023/09/08 10:49:06;;;;;;;9.90;7.68;;;;;;;-145.79;52.43;76173.50;5311890;28;20081;-70
2023/09/08 10:51:39;;;;;;;11.82;6.57;;;;;;;-145.79;52.47;76148.06;5315410;28;20027;-70
2023/09/08 10:54:10;;;;;;;7.53;6.70;;;;;;;-145.79;52.24;76143.84;5311916;28;20023;-70
2023/09/08 10:56:55;;;;;;;7.35;6.75;;;;;;;-145.79;51.82;76126.88;5311847;28;20020;-70
2023/09/08 10:59:35;;;;;;;17.88;7.47;;;;;;;-145.79;51.73;76131.13;5312795;28;20119;-70
2023/09/08 11:02:06;;;;;;;9.35;6.53;;;;;;;-145.79;51.95;76126.88;5316341;28;20077;-70
2023/09/08 11:04:37;;;;;;;6.50;6.00;;;;;;;-145.79;51.85;76103.56;5313613;28;20023;-71
2023/09/08 11:07:09;;;;;;;7.85;7.15;;;;;;;-145.79;51.59;76109.94;5311881;28;20032;-71
2023/09/08 11:09:41;;;;;;;8.02;7.20;;;;;;;-145.79;51.51;76097.22;5313257;28;20082;-71
2023/09/08 11:12:16;;;;;;;8.40;7.32;;;;;;;-145.79;51.27;76105.69;5315266;28;20510;-70
2023/09/08 11:14:49;;;;;;;8.48;7.18;;;;;;;-145.79;51.26;76080.28;5314382;28;20103;-70
2023/09/08 11:17:24;;;;;;;7.78;7.07;;;;;;;-145.79;50.86;76090.88;5307780;28;20028;-70
2023/09/08 11:19:56;;;;;;;7.05;6.45;;;;;;;-145.79;50.78;76067.56;5313938;28;20107;-70
2023/09/08 11:22:27;;;;;;;12.25;11.20;;;;;;;-145.79;50.21;76073.91;5315910;28;20164;-70
2023/09/08 11:24:58;;;;;;;17.10;15.57;;;;;;;-145.79;50.16;76059.09;5313837;28;20050;-70
2023/09/08 11:27:30;;;;;;;7.93;6.07;;;;;;;-145.79;50.05;76044.25;5312090;28;20016;-70
2023/09/08 11:30:04;;;;;;;6.57;5.97;;;;;;;-145.79;49.89;76040.00;5313223;28;20097;-70
2023/09/08 11:32:36;;;;;;;7.20;6.50;;;;;;;-145.79;48.71;76037.88;5308671;28;20029;-70
2023/09/08 11:35:09;;;;;;;6.72;6.03;;;;;;;-145.79;48.66;76027.28;5310813;28;20552;-71
2023/09/08 11:37:44;;;;;;;5.90;5.40;;;;;;;-145.79;48.80;76020.94;5315879;28;20110;-70
2023/09/08 11:40:16;;;;;;;7.15;5.50;;;;;;;-145.79;48.48;76010.34;5313490;28;20028;-69
2023/09/08 11:42:47;;;;;;;7.15;5.57;;;;;;;-145.79;47.97;75987.03;5317101;28;20028;-71
2023/09/08 11:45:21;;;;;;;6.60;5.43;;;;;;;-145.79;47.33;75961.63;5312490;28;20035;-71
2023/09/08 11:47:53;;;;;;;6.78;5.60;;;;;;;-145.79;47.76;75965.84;5301838;28;20051;-71
2023/09/08 11:50:25;;;;;;;10.25;7.05;;;;;;;-145.79;47.96;75957.38;5301702;28;20035;-69
2023/09/08 11:52:58;;;;;;;7.10;6.30;;;;;;;-145.79;47.48;75957.38;5310383;28;20485;-71
2023/09/08 11:55:31;;;;;;;6.18;5.50;;;;;;;-145.79;46.73;75940.41;5319376;28;20019;-71
2023/09/08 11:58:03;;;;;;;5.85;5.22;;;;;;;-145.79;46.41;75940.41;5302712;28;20090;-72
2023/09/08 12:00:37;;;;;;;6.30;5.50;;;;;;;-145.79;45.71;75923.47;5305607;28;20041;-72
2023/09/08 12:03:14;;;;;;;6.50;5.47;;;;;;;-145.79;45.61;75919.22;5293280;28;20028;-74
2023/09/08 12:05:51;;;;;;;7.45;5.38;;;;;;;-145.79;44.95;75906.53;5297163;28;20104;-72
2023/09/08 12:08:26;;;;;;;10.00;5.13;;;;;;;-145.79;44.98;75904.41;5312288;28;20024;-74
2023/09/08 12:10:57;;;;;;;5.88;5.28;;;;;;;-145.79;44.87;75898.03;5313158;28;20032;-71
2023/09/08 12:13:29;;;;;;;6.95;5.07;;;;;;;-145.79;44.21;75874.75;5313888;28;20471;-71
2023/09/08 12:16:00;;;;;;;11.40;6.22;;;;;;;-145.79;44.65;75840.84;5314097;28;20570;-71
2023/09/08 12:18:39;;;;;;;12.20;5.78;;;;;;;-145.79;44.43;75851.44;5311787;28;20344;-71
2023/09/08 12:21:11;;;;;;;7.28;4.70;;;;;;;-145.79;44.34;75864.16;5310894;28;20047;-72
2023/09/08 12:23:50;;;;;;;8.30;7.20;;;;;;;-145.79;44.34;75830.25;5298045;28;20035;-72
2023/09/08 12:26:24;;;;;;;4.53;4.13;;;;;;;-145.79;43.49;75845.06;5307174;28;20028;-71
2023/09/08 12:28:56;;;;;;;6.38;5.22;;;;;;;-145.79;43.34;75828.13;5313618;28;20502;-73
2023/09/08 12:31:27;;;;;;;6.55;5.65;;;;;;;-145.79;43.19;75796.34;5319362;28;20031;-73
2023/09/08 12:33:58;;;;;;;6.05;5.32;;;;;;;-145.79;42.57;75811.19;5319072;28;20062;-71
2023/09/08 12:36:30;;;;;;;6.10;5.07;;;;;;;-145.79;42.65;75796.34;5314962;28;20093;-75
2023/09/08 12:39:04;;;;;;;9.02;7.00;;;;;;;-145.79;43.04;75794.22;5311107;28;20032;-72
2023/09/08 12:41:35;;;;;;;7.70;5.28;;;;;;;-145.79;42.82;75796.34;5296631;28;20031;-72
2023/09/08 12:44:07;;;;;;;6.25;5.40;;;;;;;-145.79;42.87;75806.94;5318794;28;20047;-71
2023/09/08 12:46:39;;;;;;;8.77;4.90;;;;;;;-145.79;43.21;75783.63;5307163;28;20027;-74
2023/09/08 12:49:11;;;;;;;5.85;5.25;;;;;;;-145.79;43.46;75785.75;5318719;28;20023;-74
2023/09/08 12:51:42;;;;;;;8.00;5.25;;;;;;;-145.79;43.99;75758.19;5316036;28;20031;-72
2023/09/08 12:54:13;;;;;;;6.40;5.05;;;;;;;-145.79;43.46;75741.25;5312784;28;20035;-72
2023/09/08 12:56:45;;;;;;;8.68;6.18;;;;;;;-145.79;43.80;75737.00;5320274;28;20020;-71
2023/09/08 12:59:16;;;;;;;5.95;5.45;;;;;;;-145.79;43.67;75730.66;5313816;28;20152;-71
2023/09/08 13:01:47;;;;;;;6.47;5.88;;;;;;;-145.79;43.59;75745.50;5317132;28;20036;-69
2023/09/08 13:04:19;;;;;;;7.78;6.20;;;;;;;-145.79;43.54;75707.34;5318038;28;20057;-70
2023/09/08 13:06:50;;;;;;;7.30;5.63;;;;;;;-145.79;42.98;75698.88;5315455;28;20437;-70
2023/09/08 13:09:22;;;;;;;6.68;6.07;;;;;;;-145.79;42.81;75703.13;5314339;28;20031;-70
2023/09/08 13:11:53;;;;;;;9.10;5.97;;;;;;;-145.79;42.86;75692.53;5315994;28;20058;-70
2023/09/08 13:14:28;;;;;;;6.32;5.72;;;;;;;-145.79;42.48;75671.34;5318686;28;20081;-68
2023/09/08 13:16:59;;;;;;;9.25;6.22;;;;;;;-145.79;42.65;75681.94;5315252;28;20368;-69
2023/09/08 13:19:32;;;;;;;8.02;5.80;;;;;;;-145.79;42.29;75669.22;5318585;28;20027;-70
2023/09/08 13:22:05;;;;;;;8.30;5.88;;;;;;;-145.79;42.98;75669.22;5312453;28;20055;-69
2023/09/08 13:24:37;;;;;;;6.07;5.55;;;;;;;-145.79;42.66;75660.75;5313065;28;20444;-71
2023/09/08 13:27:08;;;;;;;7.20;6.60;;;;;;;-145.79;43.05;75656.50;5311822;28;20032;-71
2023/09/08 13:29:39;;;;;;;8.48;6.03;;;;;;;-145.79;42.29;75645.91;5312642;28;20020;-70
2023/09/08 13:32:11;;;;;;;10.57;6.82;;;;;;;-145.79;42.71;75626.84;5306838;28;20079;-70
2023/09/08 13:34:43;;;;;;;6.45;5.85;;;;;;;-145.79;42.10;75648.03;5301294;28;20028;-70
2023/09/08 13:37:15;;;;;;;9.63;8.75;;;;;;;-145.79;42.31;75622.59;5313126;28;20050;-71
2023/09/08 13:39:46;;;;;;;8.60;6.38;;;;;;;-145.79;41.86;75618.38;5304755;28;20024;-69
2023/09/08 13:42:17;;;;;;;6.47;5.85;;;;;;;-145.79;41.82;75624.72;5311210;28;20082;-71
2023/09/08 13:44:50;;;;;;;7.57;6.80;;;;;;;-145.79;42.03;75584.47;5299467;28;20464;-72
2023/09/08 13:47:21;;;;;;;7.88;6.03;;;;;;;-145.79;42.23;75603.53;5314224;28;20088;-68
2023/09/08 13:49:53;;;;;;;6.85;6.25;;;;;;;-145.79;42.28;75597.19;5311608;28;20027;-70
2023/09/08 13:52:24;;;;;;;6.30;5.70;;;;;;;-145.79;41.81;75582.34;5315055;28;20023;-69
2023/09/08 13:54:55;;;;;;;8.05;6.05;;;;;;;-145.79;41.32;75601.41;5313432;28;20069;-70
2023/09/08 13:57:27;;;;;;;7.93;5.55;;;;;;;-145.79;41.42;75576.00;5313303;28;20115;-70
2023/09/08 13:59:58;;;;;;;6.10;5.60;;;;;;;-145.79;40.86;75571.75;5313714;28;20066;-69
2023/09/08 14:02:29;;;;;;;7.15;6.45;;;;;;;-145.79;41.15;75605.66;5318863;28;20382;-70
2023/09/08 14:05:01;;;;;;;6.55;5.82;;;;;;;-145.79;41.25;75612.00;5313095;28;20036;-70
2023/09/08 14:07:32;;;;;;;8.48;5.70;;;;;;;-145.79;41.18;75618.38;5311106;28;20045;-69
2023/09/08 14:10:07;;;;;;;7.80;5.85;;;;;;;-145.79;41.42;75612.00;5317227;28;20030;-69
2023/09/08 14:12:38;;;;;;;;;;;;;;;-145.79;41.14;75584.47;5309011;28;20028;-71
2023/09/08 14:15:10;;;;;;;6.67;6.03;;;;;;;-145.79;42.08;75588.72;5309916;28;19922;-72
2023/09/08 14:17:41;;;;;;;7.53;6.20;;;;;;;-145.79;41.70;75584.47;5316000;28;20273;-72
2023/09/08 14:20:12;;;;;;;5.82;5.13;;;;;;;-145.79;40.25;75576.00;5312201;28;20394;-71
2023/09/08 14:22:44;;;;;;;6.32;5.10;;;;;;;-145.79;40.16;75559.03;5308979;28;20036;-71
2023/09/08 14:25:16;;;;;;;5.53;4.97;;;;;;;-145.79;40.13;75584.47;5316909;28;20035;-72
2023/09/08 14:27:47;;;;;;;28.77;26.15;;;;;;;-145.79;40.23;75588.72;5304297;28;20475;-73
2023/09/08 14:30:18;;;;;;;12.07;9.63;;;;;;;-145.79;40.07;75571.75;5310785;28;20024;-72
2023/09/08 14:32:50;;;;;;;8.77;8.05;;;;;;;-145.79;39.50;75584.47;5315381;28;20034;-71
2023/09/08 14:35:21;;;;;;;31.13;28.10;;;;;;;-145.79;40.09;75578.13;5312153;28;20500;-73
2023/09/08 14:37:52;;;;;;;21.27;19.20;;;;;;;-145.79;39.84;75565.41;5312518;28;20077;-73
2023/09/08 14:40:24;;;;;;;8.65;6.22;;;;;;;-145.79;39.78;75571.75;5310310;28;20024;-72
2023/09/08 14:42:55;;;;;;;8.70;6.47;;;;;;;-145.79;39.82;75586.59;5309799;28;20054;-72
2023/09/08 14:45:27;;;;;;;10.18;6.20;;;;;;;-145.79;40.25;75571.75;5308673;28;20027;-71
2023/09/08 14:47:58;;;;;;;8.32;5.75;;;;;;;-145.79;40.44;75571.75;5316667;28;20051;-72
2023/09/08 14:50:29;;;;;;;6.68;5.93;;;;;;;-145.79;40.20;75576.00;5315148;28;20080;-73
2023/09/08 14:53:01;;;;;;;8.95;5.25;;;;;;;-145.79;40.25;75590.81;5309181;28;20081;-72
2023/09/08 14:55:32;;;;;;;6.95;5.55;;;;;;;-145.79;40.99;75597.19;5317414;28;20073;-70
2023/09/08 14:58:03;;;;;;;12.50;10.13;;;;;;;-145.79;41.15;75599.31;5306386;28;20024;-70
2023/09/08 15:00:35;;;;;;;7.75;7.05;;;;;;;-145.79;41.45;75601.41;5301273;28;20467;-70
2023/09/08 15:03:08;;;;;;;7.13;6.43;;;;;;;-145.79;40.87;75605.66;5314627;28;20245;-71
2023/09/08 15:05:40;;;;;;;9.15;7.90;;;;;;;-145.79;42.02;75603.53;5314028;28;20034;-70
2023/09/08 15:08:12;;;;;;;9.95;7.57;;;;;;;-145.79;41.00;75603.53;5304652;28;20020;-70
2023/09/08 15:10:43;;;;;;;6.25;5.68;;;;;;;-145.79;40.66;75605.66;5314707;28;20038;-71
2023/09/08 15:13:15;;;;;;;11.23;6.18;;;;;;;-145.79;40.28;75628.97;5311754;28;20391;-71
2023/09/08 15:15:47;;;;;;;8.48;6.53;;;;;;;-145.79;40.10;75633.19;5310889;28;20034;-71
2023/09/08 15:18:22;;;;;;;6.88;5.65;;;;;;;-145.79;40.99;75641.66;5315514;28;20466;-71
2023/09/08 15:20:54;;;;;;;7.35;5.35;;;;;;;-145.79;41.74;75652.25;5312833;28;20070;-71
2023/09/08 15:23:25;;;;;;;8.02;7.13;;;;;;;-145.79;41.92;75643.78;5310707;28;20410;-70
2023/09/08 15:25:58;;;;;;;7.03;6.32;;;;;;;-145.79;41.83;75652.25;5313840;28;20090;-69
2023/09/08 15:28:29;;;;;;;6.82;5.47;;;;;;;-145.79;41.46;75658.63;5315562;28;20024;-69
2023/09/08 15:31:01;;;;;;;6.30;5.57;;;;;;;-145.79;41.79;75643.78;5304862;28;20025;-70
2023/09/08 15:33:32;;;;;;;6.53;5.93;;;;;;;-145.79;41.88;75660.75;5311603;28;20535;-70
2023/09/08 15:36:04;;;;;;;11.25;6.80;;;;;;;-145.79;41.82;75669.22;5297922;28;20384;-70
2023/09/08 15:38:35;;;;;;;8.32;5.93;;;;;;;-145.79;42.09;75652.25;5309484;28;20027;-70
2023/09/08 15:41:10;;;;;;;8.63;4.85;;;;;;;-145.79;41.39;75660.75;5312592;28;20055;-70
2023/09/08 15:43:42;;;;;;;10.73;5.10;;;;;;;-145.79;41.29;75660.75;5309794;28;20382;-71
2023/09/08 15:46:14;;;;;;;6.30;5.70;;;;;;;-145.79;41.26;75650.16;5315433;28;20032;-70
2023/09/08 15:48:45;;;;;;;6.78;5.20;;;;;;;-145.79;41.73;75648.03;5304972;28;20108;-70
2023/09/08 15:51:17;;;;;;;8.38;5.65;;;;;;;-145.79;42.08;75643.78;5307344;28;20032;-70
2023/09/08 15:53:48;;;;;;;9.93;6.22;;;;;;;-145.79;41.90;75645.91;5313797;28;20020;-70
2023/09/08 15:56:19;;;;;;;11.23;5.60;;;;;;;-145.79;41.81;75658.63;5308241;28;20104;-70
2023/09/08 15:58:51;;;;;;;7.63;5.35;;;;;;;-145.79;41.96;75652.25;5309941;28;20026;-71
2023/09/08 16:01:22;;;;;;;6.30;5.20;;;;;;;-145.79;41.90;75664.97;5313090;28;20024;-70
2023/09/08 16:03:53;;;;;;;6.15;5.07;;;;;;;-145.79;41.32;75681.94;5307177;28;20379;-70
2023/09/08 16:06:25;;;;;;;7.18;4.45;;;;;;;-145.79;41.65;75664.97;5316532;28;20020;-70
2023/09/08 16:08:56;;;;;;;35.00;31.80;;;;;;;-145.79;41.18;75669.22;5315810;28;20031;-71
2023/09/08 16:11:27;;;;;;;7.93;5.57;;;;;;;-145.79;41.65;75673.44;5312607;28;20019;-70
2023/09/08 16:13:59;;;;;;;6.47;5.43;;;;;;;-145.79;41.40;75681.94;5313013;28;20099;-70
2023/09/08 16:16:30;;;;;;;6.70;5.20;;;;;;;-145.79;41.76;75688.28;5307961;28;20483;-70
2023/09/08 16:19:01;;;;;;;11.60;6.07;;;;;;;-145.79;41.84;75698.88;5305177;28;20023;-70
2023/09/08 16:21:34;;;;;;;16.63;6.05;;;;;;;-145.79;42.17;75703.13;5308453;28;20036;-71
2023/09/08 16:24:06;;;;;;;8.73;6.07;;;;;;;-145.79;42.27;75692.53;5312774;28;20114;-71
2023/09/08 16:26:37;;;;;;;13.20;5.13;;;;;;;-145.79;41.14;75696.75;5309543;28;20119;-71
2023/09/08 16:29:08;;;;;;;8.13;5.28;;;;;;;-145.79;39.85;75686.16;5301938;28;21144;-71
2023/09/08 16:31:40;;;;;;;19.83;6.88;;;;;;;-145.79;40.42;75694.63;5312270;28;20034;-71
2023/09/08 16:34:11;;;;;;;10.88;4.68;;;;;;;-145.79;40.35;75692.53;5304194;28;20127;-71
2023/09/08 16:36:42;;;;;;;8.98;5.68;;;;;;;-145.79;40.53;75703.13;5318807;28;20019;-70
2023/09/08 16:39:14;;;;;;;7.95;5.18;;;;;;;-145.79;40.84;75705.22;5305814;28;20039;-73
2023/09/08 16:41:45;;;;;;;8.77;5.00;;;;;;;-145.79;40.70;75709.47;5309075;28;20036;-73
2023/09/08 16:44:17;;;;;;;5.90;4.93;;;;;;;-145.79;41.02;75724.31;5302159;28;20534;-71
2023/09/08 16:46:48;;;;;;;6.53;5.60;;;;;;;-145.79;40.83;75715.81;5308583;28;20023;-71
2023/09/08 16:49:19;;;;;;;8.63;6.75;;;;;;;-145.79;41.09;75728.53;5316825;28;20030;-70
2023/09/08 16:51:53;;;;;;;8.15;5.90;;;;;;;-145.79;41.64;75732.78;5312770;28;20474;-70
2023/09/08 16:54:25;;;;;;;6.78;4.88;;;;;;;-145.79;42.04;75741.25;5314462;28;20024;-71
